createdAt,value
2022-10-17T00:00:18.110Z,99.99
2022-10-17T00:01:19.473Z,99.99
2022-10-17T00:02:19.616Z,99.99
2022-10-17T00:03:19.789Z,99.99
2022-10-17T00:04:20.107Z,99.99
2022-10-17T00:05:21.427Z,99.99
2022-10-17T00:06:22.062Z,99.99
2022-10-17T00:07:22.958Z,99.99
2022-10-17T00:08:24.189Z,99.99
2022-10-17T00:09:24.078Z,99.99
2022-10-17T00:10:24.971Z,99.99
2022-10-17T00:11:25.863Z,99.99
2022-10-17T00:12:26.877Z,99.99
2022-10-17T00:13:27.566Z,99.99
2022-10-17T00:14:27.359Z,99.99
2022-10-17T00:15:28.571Z,99.99
2022-10-17T00:16:28.794Z,99.99
2022-10-17T00:17:29.817Z,99.99
2022-10-17T00:18:30.506Z,99.99
2022-10-17T00:19:31.155Z,99.99
2022-10-17T00:20:32.039Z,99.99
2022-10-17T00:21:31.975Z,99.99
2022-10-17T00:22:32.711Z,99.99
2022-10-17T00:23:33.022Z,99.99
2022-10-17T00:24:33.208Z,99.99
2022-10-17T00:25:33.131Z,99.99
2022-10-17T00:26:33.323Z,99.99
2022-10-17T00:27:34.347Z,99.99
2022-10-17T00:28:34.778Z,99.99
2022-10-17T00:29:34.689Z,99.99
2022-10-17T00:30:35.336Z,99.99
2022-10-17T00:31:35.545Z,99.99
2022-10-17T00:32:36.017Z,99.99
2022-10-17T00:33:36.203Z,99.99
2022-10-17T00:34:37.136Z,99.99
2022-10-17T00:35:37.480Z,99.99
2022-10-17T00:36:38.111Z,99.99
2022-10-17T00:37:39.018Z,99.99
2022-10-17T00:38:39.262Z,99.99
2022-10-17T00:39:39.753Z,99.99
2022-10-17T00:40:40.244Z,99.99
2022-10-17T00:41:41.285Z,99.99
2022-10-17T00:42:41.721Z,99.99
2022-10-17T00:43:42.657Z,99.99
2022-10-17T00:44:43.573Z,99.99
2022-10-17T00:45:43.891Z,99.99
2022-10-17T00:46:44.392Z,99.99
2022-10-17T00:47:44.609Z,99.99
2022-10-17T00:48:45.214Z,99.99
2022-10-17T00:49:46.555Z,99.99
2022-10-17T00:50:46.596Z,99.99
2022-10-17T00:51:47.530Z,99.99
2022-10-17T00:52:47.690Z,99.99
2022-10-17T00:53:47.934Z,99.99
2022-10-17T00:54:47.830Z,99.99
2022-10-17T00:55:48.743Z,99.99
2022-10-17T00:56:49.662Z,99.99
2022-10-17T00:57:50.876Z,99.99
2022-10-17T00:58:51.515Z,99.99
2022-10-17T00:59:52.600Z,99.99
2022-10-17T01:00:53.277Z,99.99
2022-10-17T01:01:54.326Z,99.99
2022-10-17T01:02:54.742Z,99.99
2022-10-17T01:03:55.930Z,99.99
2022-10-17T01:04:56.118Z,99.99
2022-10-17T01:05:57.085Z,99.99
2022-10-17T01:06:57.024Z,99.99
2022-10-17T01:07:57.519Z,99.99
2022-10-17T01:08:57.766Z,99.99
2022-10-17T01:09:57.977Z,99.99
2022-10-17T01:10:57.991Z,99.99
2022-10-17T01:11:59.209Z,99.99
2022-10-17T01:12:59.929Z,99.99
2022-10-17T01:14:00.114Z,99.99
2022-10-17T01:15:01.036Z,99.99
2022-10-17T01:16:01.650Z,99.99
2022-10-17T01:17:02.872Z,99.99
2022-10-17T01:18:03.108Z,99.99
2022-10-17T01:19:03.289Z,99.99
2022-10-17T01:20:03.992Z,99.99
2022-10-17T01:21:03.905Z,99.99
2022-10-17T01:22:04.834Z,99.99
2022-10-17T01:23:05.524Z,99.99
2022-10-17T01:24:05.743Z,99.99
2022-10-17T01:25:06.929Z,99.99
2022-10-17T01:26:07.842Z,99.99
2022-10-17T01:27:08.746Z,99.99
2022-10-17T01:28:09.388Z,99.99
2022-10-17T01:29:09.920Z,99.99
2022-10-17T01:30:10.109Z,99.99
2022-10-17T01:31:10.433Z,99.99
2022-10-17T01:32:11.371Z,99.99
2022-10-17T01:33:12.091Z,99.99
2022-10-17T01:34:12.967Z,99.99
2022-10-17T01:35:13.456Z,99.99
2022-10-17T01:36:13.794Z,99.99
2022-10-17T01:37:13.999Z,99.99
2022-10-17T01:38:14.642Z,99.99
2022-10-17T01:39:14.887Z,99.99
2022-10-17T01:40:15.159Z,99.99
2022-10-17T01:41:16.051Z,99.99
2022-10-17T01:42:16.394Z,99.99
2022-10-17T01:43:17.250Z,99.99
2022-10-17T01:44:17.166Z,99.99
2022-10-17T01:45:18.111Z,99.99
2022-10-17T01:46:18.753Z,99.99
2022-10-17T01:47:18.968Z,99.99
2022-10-17T01:48:19.288Z,99.99
2022-10-17T01:49:20.194Z,99.99
2022-10-17T01:50:21.109Z,99.99
2022-10-17T01:51:21.750Z,99.99
2022-10-17T01:52:22.389Z,99.99
2022-10-17T01:53:23.414Z,99.99
2022-10-17T01:54:24.067Z,99.99
2022-10-17T01:55:24.707Z,99.99
2022-10-17T01:56:25.622Z,99.99
2022-10-17T01:57:26.426Z,99.99
2022-10-17T01:58:26.796Z,99.99
2022-10-17T01:59:26.721Z,99.99
2022-10-17T02:00:27.920Z,99.99
2022-10-17T02:01:27.952Z,99.99
2022-10-17T02:02:28.351Z,99.99
2022-10-17T02:03:29.490Z,99.99
2022-10-17T02:04:29.368Z,99.99
2022-10-17T02:05:30.275Z,99.99
2022-10-17T02:06:31.168Z,99.99
2022-10-17T02:07:32.476Z,99.99
2022-10-17T02:08:32.412Z,99.99
2022-10-17T02:09:32.636Z,99.99
2022-10-17T02:10:32.972Z,99.99
2022-10-17T02:11:34.163Z,99.99
2022-10-17T02:12:34.479Z,99.99
2022-10-17T02:13:35.338Z,99.99
2022-10-17T02:14:35.954Z,99.99
2022-10-17T02:15:36.290Z,99.99
2022-10-17T02:16:36.484Z,99.99
2022-10-17T02:17:37.429Z,99.99
2022-10-17T02:18:37.357Z,99.99
2022-10-17T02:19:38.237Z,99.99
2022-10-17T02:20:39.450Z,99.99
2022-10-17T02:21:39.641Z,99.99
2022-10-17T02:22:39.847Z,99.99
2022-10-17T02:23:40.261Z,99.99
2022-10-17T02:24:40.482Z,99.99
2022-10-17T02:25:41.676Z,99.99
2022-10-17T02:26:42.272Z,99.99
2022-10-17T02:27:42.764Z,99.99
2022-10-17T02:28:43.120Z,99.99
2022-10-17T02:29:43.232Z,99.99
2022-10-17T02:30:43.852Z,99.99
2022-10-17T02:31:44.765Z,99.99
2022-10-17T02:32:46.745Z,99.99
2022-10-17T02:33:46.150Z,99.99
2022-10-17T02:34:46.452Z,99.99
2022-10-17T02:35:47.662Z,99.99
2022-10-17T02:36:48.012Z,99.99
2022-10-17T02:37:48.923Z,99.99
2022-10-17T02:38:50.135Z,99.99
2022-10-17T02:39:50.356Z,99.99
2022-10-17T02:40:50.988Z,99.99
2022-10-17T02:41:51.484Z,99.99
2022-10-17T02:42:51.697Z,99.99
2022-10-17T02:43:52.688Z,99.99
2022-10-17T02:44:53.285Z,99.99
2022-10-17T02:45:54.483Z,99.99
2022-10-17T02:46:54.700Z,99.99
2022-10-17T02:47:55.204Z,99.99
2022-10-17T02:48:55.718Z,99.99
2022-10-17T02:49:56.206Z,99.99
2022-10-17T02:50:56.406Z,99.99
2022-10-17T02:51:56.732Z,99.99
2022-10-17T02:52:57.383Z,99.99
2022-10-17T02:53:57.381Z,99.99
2022-10-17T02:54:57.889Z,99.99
2022-10-17T02:55:58.509Z,99.99
2022-10-17T02:56:59.700Z,99.99
2022-10-17T02:58:00.590Z,99.99
2022-10-17T02:59:00.484Z,99.99
2022-10-17T03:00:01.141Z,99.99
2022-10-17T03:01:02.443Z,99.99
2022-10-17T03:02:02.414Z,99.99
2022-10-17T03:03:03.639Z,99.99
2022-10-17T03:04:04.476Z,99.99
2022-10-17T03:05:04.683Z,99.99
2022-10-17T03:06:05.316Z,99.99
2022-10-17T03:07:05.934Z,99.99
2022-10-17T03:08:06.591Z,99.99
2022-10-17T03:09:07.803Z,99.99
2022-10-17T03:10:08.027Z,99.99
2022-10-17T03:11:08.638Z,99.99
2022-10-17T03:12:09.827Z,99.99
2022-10-17T03:13:10.445Z,99.99
2022-10-17T03:14:11.455Z,99.99
2022-10-17T03:15:11.351Z,99.99
2022-10-17T03:16:12.252Z,99.99
2022-10-17T03:17:12.893Z,99.99
2022-10-17T03:18:13.826Z,99.99
2022-10-17T03:19:14.467Z,99.99
2022-10-17T03:20:14.651Z,99.99
2022-10-17T03:21:15.569Z,99.99
2022-10-17T03:22:16.487Z,99.99
2022-10-17T03:23:16.897Z,99.99
2022-10-17T03:24:17.319Z,99.99
2022-10-17T03:25:17.842Z,99.99
2022-10-17T03:26:18.461Z,99.99
2022-10-17T03:27:19.119Z,99.99
2022-10-17T03:28:19.044Z,99.99
2022-10-17T03:29:19.763Z,99.99
2022-10-17T03:30:20.377Z,99.99
2022-10-17T03:31:20.688Z,99.99
2022-10-17T03:32:21.903Z,99.99
2022-10-17T03:33:22.826Z,99.99
2022-10-17T03:34:23.443Z,99.99
2022-10-17T03:35:23.647Z,99.99
2022-10-17T03:36:23.962Z,99.99
2022-10-17T03:37:24.872Z,99.99
2022-10-17T03:38:26.082Z,99.99
2022-10-17T03:39:26.996Z,99.99
2022-10-17T03:40:27.931Z,99.99
2022-10-17T03:41:28.118Z,99.99
2022-10-17T03:42:28.760Z,99.99
2022-10-17T03:43:29.242Z,99.99
2022-10-17T03:44:29.658Z,99.99
2022-10-17T03:45:30.278Z,99.99
2022-10-17T03:46:31.493Z,99.99
2022-10-17T03:47:31.866Z,99.99
2022-10-17T03:48:31.950Z,99.99
2022-10-17T03:49:32.173Z,99.99
2022-10-17T03:50:33.048Z,99.99
2022-10-17T03:51:33.302Z,99.99
2022-10-17T03:52:33.923Z,99.99
2022-10-17T03:53:34.578Z,99.71
2022-10-17T03:54:35.054Z,99.33
2022-10-17T03:55:35.983Z,99.99
2022-10-17T03:56:35.876Z,99.99
2022-10-17T03:57:36.725Z,99.43
2022-10-17T03:58:37.348Z,99.9
2022-10-17T03:59:38.243Z,99.62
2022-10-17T04:00:38.858Z,99.81
2022-10-17T04:01:39.099Z,99.33
2022-10-17T04:02:39.790Z,99.43
2022-10-17T04:03:39.992Z,99.62
2022-10-17T04:04:40.419Z,99.33
2022-10-17T04:05:41.298Z,99.04
2022-10-17T04:06:41.935Z,98.75
2022-10-17T04:07:42.560Z,98.38
2022-10-17T04:08:43.192Z,98.9
2022-10-17T04:09:44.114Z,98.47
2022-10-17T04:10:44.385Z,98.47
2022-10-17T04:11:45.322Z,98.14
2022-10-17T04:12:45.959Z,98.24
2022-10-17T04:13:46.168Z,97.9
2022-10-17T04:14:46.179Z,98.61
2022-10-17T04:15:47.082Z,98.33
2022-10-17T04:16:47.272Z,98.24
2022-10-17T04:17:48.738Z,98.24
2022-10-17T04:18:49.258Z,97.66
2022-10-17T04:19:49.942Z,97.61
2022-10-17T04:20:50.119Z,97.99
2022-10-17T04:21:51.054Z,98.09
2022-10-17T04:22:52.210Z,98.28
2022-10-17T04:23:52.152Z,97.71
2022-10-17T04:24:52.585Z,97.8
2022-10-17T04:25:52.522Z,98.09
2022-10-17T04:26:53.709Z,97.61
2022-10-17T04:27:53.903Z,97.61
2022-10-17T04:28:54.935Z,97.71
2022-10-17T04:29:55.839Z,97.23
2022-10-17T04:30:59.256Z,97.33
2022-10-17T04:31:57.479Z,97.61
2022-10-17T04:32:58.419Z,97.99
2022-10-17T04:33:59.359Z,97.9
2022-10-17T04:34:59.388Z,97.8
2022-10-17T04:36:00.563Z,97.9
2022-10-17T04:37:01.163Z,98.38
2022-10-17T04:38:01.795Z,97.71
2022-10-17T04:39:02.459Z,97.61
2022-10-17T04:40:03.238Z,97.71
2022-10-17T04:41:03.758Z,98.18
2022-10-17T04:42:04.374Z,98.18
2022-10-17T04:43:05.288Z,97.9
2022-10-17T04:44:05.609Z,98.18
2022-10-17T04:45:06.326Z,98.18
2022-10-17T04:46:06.853Z,97.33
2022-10-17T04:47:07.040Z,97.8
2022-10-17T04:48:07.235Z,97.71
2022-10-17T04:49:07.440Z,97.9
2022-10-17T04:50:08.002Z,98.57
2022-10-17T04:51:08.222Z,97.99
2022-10-17T04:52:08.915Z,97.99
2022-10-17T04:53:09.830Z,98.47
2022-10-17T04:54:10.783Z,98.57
2022-10-17T04:55:10.814Z,98.38
2022-10-17T04:56:12.035Z,98.85
2022-10-17T04:57:12.356Z,98.95
2022-10-17T04:58:12.664Z,99.24
2022-10-17T04:59:13.279Z,98.95
2022-10-17T05:00:15.207Z,98.95
2022-10-17T05:01:14.623Z,98.66
2022-10-17T05:02:15.246Z,98.47
2022-10-17T05:03:16.196Z,98.38
2022-10-17T05:04:18.919Z,98.28
2022-10-17T05:05:17.353Z,98.47
2022-10-17T05:06:17.229Z,98.18
2022-10-17T05:07:18.417Z,98.47
2022-10-17T05:08:18.334Z,98.38
2022-10-17T05:09:18.869Z,98.28
2022-10-17T05:10:19.398Z,98.57
2022-10-17T05:11:19.636Z,98.38
2022-10-17T05:12:19.571Z,98.85
2022-10-17T05:13:20.533Z,99.04
2022-10-17T05:14:21.864Z,99.14
2022-10-17T05:15:22.006Z,98.85
2022-10-17T05:16:22.902Z,98.95
2022-10-17T05:17:23.817Z,99.52
2022-10-17T05:18:24.311Z,99.38
2022-10-17T05:19:24.962Z,98.85
2022-10-17T05:20:24.870Z,98.95
2022-10-17T05:21:26.233Z,98.95
2022-10-17T05:22:26.227Z,98.95
2022-10-17T05:23:26.769Z,99.14
2022-10-17T05:24:27.284Z,98.85
2022-10-17T05:25:28.138Z,99.14
2022-10-17T05:26:28.661Z,99.14
2022-10-17T05:27:28.983Z,99.14
2022-10-17T05:28:29.653Z,98.57
2022-10-17T05:29:30.433Z,98.47
2022-10-17T05:30:33.625Z,98.47
2022-10-17T05:31:31.022Z,98.38
2022-10-17T05:32:32.417Z,98.09
2022-10-17T05:33:32.402Z,97.9
2022-10-17T05:34:33.332Z,98.47
2022-10-17T05:35:33.799Z,98.18
2022-10-17T05:36:33.976Z,97.8
2022-10-17T05:37:34.874Z,97.61
2022-10-17T05:38:34.787Z,97.8
2022-10-17T05:39:35.702Z,97.8
2022-10-17T05:40:36.291Z,97.61
2022-10-17T05:41:36.814Z,97.71
2022-10-17T05:42:37.397Z,97.9
2022-10-17T05:43:37.343Z,98.28
2022-10-17T05:44:37.960Z,98.57
2022-10-17T05:45:39.094Z,98.85
2022-10-17T05:46:39.012Z,99.04
2022-10-17T05:47:39.627Z,98.85
2022-10-17T05:48:40.249Z,99.24
2022-10-17T05:49:57.917Z,98.85
2022-10-17T05:50:41.564Z,99.14
2022-10-17T05:51:41.950Z,98.75
2022-10-17T05:52:43.890Z,98.95
2022-10-17T05:53:43.051Z,98.38
2022-10-17T05:54:42.979Z,98.95
2022-10-17T05:55:43.692Z,98.09
2022-10-17T05:56:44.666Z,98.28
2022-10-17T05:57:45.707Z,98.28
2022-10-17T05:59:06.098Z,97.8
2022-10-17T05:59:47.597Z,98.18
2022-10-17T06:00:48.559Z,97.8
2022-10-17T06:01:49.664Z,98.18
2022-10-17T06:02:49.935Z,97.8
2022-10-17T06:03:50.525Z,97.61
2022-10-17T06:04:50.866Z,97.71
2022-10-17T06:05:51.550Z,98.09
2022-10-17T06:06:52.448Z,97.71
2022-10-17T06:07:55.074Z,97.33
2022-10-17T06:08:53.797Z,97.42
2022-10-17T06:09:54.752Z,97.23
2022-10-17T06:10:54.964Z,97.52
2022-10-17T06:11:55.114Z,97.52
2022-10-17T06:12:55.432Z,98.47
2022-10-17T06:13:56.417Z,98.57
2022-10-17T06:14:57.036Z,98.75
2022-10-17T06:15:58.341Z,97.9
2022-10-17T06:16:58.677Z,97.9
2022-10-17T06:17:59.613Z,98.09
2022-10-17T06:19:00.238Z,98.28
2022-10-17T06:20:01.159Z,97.99
2022-10-17T06:21:01.691Z,98.18
2022-10-17T06:22:02.178Z,98.18
2022-10-17T06:23:02.687Z,98.28
2022-10-17T06:24:03.311Z,99.04
2022-10-17T06:25:03.832Z,98.38
2022-10-17T06:26:04.843Z,97.8
2022-10-17T06:27:09.324Z,97.9
2022-10-17T06:28:06.304Z,97.23
2022-10-17T06:29:06.370Z,97.23
2022-10-17T06:30:06.517Z,97.13
2022-10-17T06:31:07.461Z,97.33
2022-10-17T06:32:08.585Z,97.33
2022-10-17T06:33:08.429Z,96.84
2022-10-17T06:34:09.065Z,96.75
2022-10-17T06:35:10.000Z,96.47
2022-10-17T06:36:10.866Z,97.04
2022-10-17T06:37:11.182Z,96.84
2022-10-17T06:38:12.068Z,96.42
2022-10-17T06:39:12.987Z,96.66
2022-10-17T06:40:12.902Z,97.08
2022-10-17T06:41:14.169Z,96.27
2022-10-17T06:42:14.147Z,96.18
2022-10-17T06:43:15.086Z,96.27
2022-10-17T06:44:15.939Z,95.36
2022-10-17T06:45:17.202Z,95.65
2022-10-17T06:46:18.004Z,95.75
2022-10-17T06:47:22.073Z,95.65
2022-10-17T06:48:19.464Z,96.22
2022-10-17T06:49:20.661Z,96.42
2022-10-17T06:50:21.174Z,96.7
2022-10-17T06:51:21.423Z,95.56
2022-10-17T06:52:21.321Z,96.32
2022-10-17T06:53:22.240Z,95.36
2022-10-17T06:54:22.439Z,95.36
2022-10-17T06:55:28.195Z,95.36
2022-10-17T06:56:23.503Z,95.27
2022-10-17T06:57:24.151Z,94.89
2022-10-17T06:58:24.709Z,94.79
2022-10-17T06:59:25.044Z,94.98
2022-10-17T07:00:25.771Z,94.41
2022-10-17T07:01:25.925Z,93.93
2022-10-17T07:02:26.857Z,92.92
2022-10-17T07:03:26.565Z,92.73
2022-10-17T07:04:26.773Z,92.68
2022-10-17T07:05:27.433Z,91.34
2022-10-17T07:06:27.776Z,90.14
2022-10-17T07:07:28.876Z,88.7
2022-10-17T07:08:29.095Z,86.93
2022-10-17T07:09:30.293Z,86.64
2022-10-17T07:10:30.526Z,85.15
2022-10-17T07:11:31.007Z,84.81
2022-10-17T07:12:31.571Z,85.19
2022-10-17T07:13:34.451Z,84.42
2022-10-17T07:14:32.391Z,83.27
2022-10-17T07:15:32.304Z,83.08
2022-10-17T07:16:33.686Z,83.85
2022-10-17T07:17:34.974Z,84.14
2022-10-17T07:18:34.593Z,84.91
2022-10-17T07:19:35.103Z,85.38
2022-10-17T07:20:36.040Z,84.81
2022-10-17T07:21:42.158Z,85.19
2022-10-17T07:22:37.111Z,85.96
2022-10-17T07:23:37.027Z,84.81
2022-10-17T07:24:37.994Z,84.14
2022-10-17T07:25:41.637Z,83.56
2022-10-17T07:26:38.928Z,83.27
2022-10-17T07:27:39.238Z,82.7
2022-10-17T07:28:39.618Z,83.27
2022-10-17T07:29:39.838Z,82.64
2022-10-17T07:30:40.104Z,82.35
2022-10-17T07:31:40.972Z,81.87
2022-10-17T07:32:41.964Z,81.87
2022-10-17T07:33:42.298Z,80.43
2022-10-17T07:34:42.606Z,80.73
2022-10-17T07:35:42.828Z,81.4
2022-10-17T07:36:43.202Z,80.05
2022-10-17T07:37:43.840Z,80.09
2022-10-17T07:38:45.011Z,79.52
2022-10-17T07:39:45.001Z,79.22
2022-10-17T07:40:45.642Z,78.45
2022-10-17T07:41:48.140Z,78.5
2022-10-17T07:42:46.900Z,78.5
2022-10-17T07:43:47.075Z,78.02
2022-10-17T07:44:47.371Z,77.15
2022-10-17T07:45:48.046Z,76.61
2022-10-17T07:46:48.207Z,76.32
2022-10-17T07:47:49.193Z,75.56
2022-10-17T07:48:49.685Z,75.27
2022-10-17T07:49:51.308Z,75.59
2022-10-17T07:50:51.850Z,75.75
2022-10-17T07:51:52.006Z,74.92
2022-10-17T07:52:52.694Z,74.44
2022-10-17T07:53:54.720Z,74.82
2022-10-17T07:54:54.239Z,74.44
2022-10-17T07:55:55.374Z,73.09
2022-10-17T07:56:55.359Z,73.47
2022-10-17T07:57:55.228Z,73.28
2022-10-17T07:59:56.106Z,71.69
2022-10-17T08:00:56.827Z,71.78
2022-10-17T08:01:57.477Z,71.78
2022-10-17T08:02:57.472Z,71.69
2022-10-17T08:03:57.647Z,71.2
2022-10-17T08:04:57.706Z,71.78
2022-10-17T08:05:58.936Z,72.07
2022-10-17T08:07:23.189Z,70.76
2022-10-17T08:08:00.474Z,70.09
2022-10-17T08:09:00.688Z,69.35
2022-10-17T08:10:01.806Z,69.35
2022-10-17T08:11:02.551Z,69.38
2022-10-17T08:12:03.209Z,68.99
2022-10-17T08:13:03.450Z,69.38
2022-10-17T08:14:04.684Z,70.44
2022-10-17T08:15:05.041Z,70.44
2022-10-17T08:16:06.014Z,70.12
2022-10-17T08:17:06.372Z,69.73
2022-10-17T08:18:06.555Z,70.41
2022-10-17T08:20:08.198Z,70.6
2022-10-17T08:21:09.129Z,71.34
2022-10-17T08:22:09.047Z,70.6
2022-10-17T08:23:09.717Z,68.96
2022-10-17T08:24:09.919Z,68.8
2022-10-17T08:25:10.137Z,68.16
2022-10-17T08:26:10.709Z,67.97
2022-10-17T08:27:11.051Z,68.93
2022-10-17T08:28:11.568Z,68.55
2022-10-17T08:29:12.041Z,68.07
2022-10-17T08:30:12.397Z,66.97
2022-10-17T08:31:13.154Z,65.37
2022-10-17T08:32:15.409Z,64.05
2022-10-17T08:33:14.612Z,62.3
2022-10-17T08:34:14.863Z,60.11
2022-10-17T08:35:15.160Z,58.72
2022-10-17T08:36:16.124Z,58
2022-10-17T08:37:16.961Z,57.34
2022-10-17T08:38:20.946Z,57.12
2022-10-17T08:39:18.822Z,57.03
2022-10-17T08:40:19.834Z,56.54
2022-10-17T08:41:20.834Z,55.26
2022-10-17T08:42:21.672Z,55.44
2022-10-17T08:43:21.929Z,56.97
2022-10-17T08:44:22.857Z,58.59
2022-10-17T08:45:23.084Z,58.85
2022-10-17T08:46:24.135Z,59.21
2022-10-17T08:47:24.646Z,58.92
2022-10-17T08:48:25.497Z,59.01
2022-10-17T08:49:26.485Z,59.79
2022-10-17T08:50:26.867Z,60.53
2022-10-17T08:51:27.015Z,61.69
2022-10-17T08:52:27.411Z,61.6
2022-10-17T08:53:27.951Z,62.05
2022-10-17T08:54:28.219Z,62.63
2022-10-17T08:55:29.286Z,63.37
2022-10-17T08:56:49.828Z,63.47
2022-10-17T08:57:37.736Z,63.92
2022-10-17T08:58:37.458Z,64.4
2022-10-17T08:59:38.124Z,64.59
2022-10-17T09:00:38.547Z,65.17
2022-10-17T09:01:38.681Z,65.27
2022-10-17T09:02:39.791Z,65.01
2022-10-17T09:03:40.786Z,64.34
2022-10-17T09:04:41.309Z,64.37
2022-10-17T09:05:41.942Z,65.08
2022-10-17T09:06:42.446Z,64.59
2022-10-17T09:07:43.232Z,65.14
2022-10-17T09:08:43.999Z,63.98
2022-10-17T09:09:44.040Z,62.95
2022-10-17T09:10:45.273Z,62.66
2022-10-17T09:11:45.809Z,62.56
2022-10-17T09:12:46.041Z,62.27
2022-10-17T09:13:46.304Z,62.37
2022-10-17T09:14:46.978Z,62.44
2022-10-17T09:15:47.924Z,60.69
2022-10-17T09:16:48.200Z,60.31
2022-10-17T09:17:48.600Z,59.53
2022-10-17T09:18:49.296Z,60.41
2022-10-17T09:19:50.374Z,59.6
2022-10-17T09:20:50.803Z,60.47
2022-10-17T09:21:52.061Z,62.31
2022-10-17T09:22:52.892Z,62.12
2022-10-17T09:23:56.106Z,62.95
2022-10-17T09:24:53.829Z,63.34
2022-10-17T09:25:53.814Z,64.21
2022-10-17T09:26:54.794Z,66.14
2022-10-17T09:27:55.233Z,65.56
2022-10-17T09:28:56.357Z,64.79
2022-10-17T09:29:56.934Z,65.27
2022-10-17T09:30:58.009Z,65.72
2022-10-17T09:31:58.387Z,66.2
2022-10-17T09:32:58.961Z,66.4
2022-10-17T09:34:00.701Z,65.53
2022-10-17T09:34:59.977Z,66.11
2022-10-17T09:36:00.967Z,66.4
2022-10-17T09:37:02.075Z,66.11
2022-10-17T09:38:03.060Z,64.37
2022-10-17T09:39:03.648Z,64.95
2022-10-17T09:40:04.676Z,64.86
2022-10-17T09:41:15.918Z,64.92
2022-10-17T09:42:05.957Z,65.88
2022-10-17T09:43:06.695Z,65.63
2022-10-17T09:44:07.347Z,65.2
2022-10-17T09:45:08.197Z,64.43
2022-10-17T09:46:08.736Z,65.2
2022-10-17T09:47:08.708Z,65.53
2022-10-17T09:48:08.962Z,65.91
2022-10-17T09:49:10.258Z,65.53
2022-10-17T09:50:10.191Z,65.53
2022-10-17T09:51:30.522Z,65.43
2022-10-17T09:52:11.651Z,65.82
2022-10-17T09:53:12.321Z,65.53
2022-10-17T09:54:13.590Z,64.37
2022-10-17T09:55:14.629Z,64.28
2022-10-17T09:56:15.298Z,65.91
2022-10-17T09:57:16.311Z,66.2
2022-10-17T09:58:16.711Z,66.3
2022-10-17T09:59:19.488Z,64.21
2022-10-17T10:00:18.126Z,64.59
2022-10-17T10:01:19.666Z,64.72
2022-10-17T10:02:18.858Z,64.08
2022-10-17T10:03:19.184Z,64.01
2022-10-17T10:04:20.080Z,63.05
2022-10-17T10:05:20.949Z,61.53
2022-10-17T10:06:21.942Z,61.53
2022-10-17T10:07:25.686Z,61.05
2022-10-17T10:08:22.367Z,57.98
2022-10-17T10:09:22.917Z,58.11
2022-10-17T10:10:23.685Z,57.84
2022-10-17T10:11:24.200Z,56.61
2022-10-17T10:12:24.404Z,55.69
2022-10-17T10:13:25.169Z,54.27
2022-10-17T10:14:26.485Z,53.3
2022-10-17T10:15:26.693Z,53.71
2022-10-17T10:16:27.643Z,54.39
2022-10-17T10:17:27.899Z,54.68
2022-10-17T10:19:29.536Z,53.54
2022-10-17T10:20:30.434Z,52.01
2022-10-17T10:21:30.360Z,51.75
2022-10-17T10:22:31.646Z,51.48
2022-10-17T10:23:31.617Z,51.39
2022-10-17T10:24:36.383Z,51.41
2022-10-17T10:25:32.886Z,50.16
2022-10-17T10:26:32.824Z,50.07
2022-10-17T10:27:33.834Z,47.85
2022-10-17T10:28:34.380Z,47.85
2022-10-17T10:29:34.867Z,49.44
2022-10-17T10:30:37.533Z,50.51
2022-10-17T10:31:36.097Z,49.9
2022-10-17T10:32:37.234Z,50.12
2022-10-17T10:33:40.471Z,49.32
2022-10-17T10:34:37.836Z,49.51
2022-10-17T10:35:38.793Z,50.48
2022-10-17T10:36:39.690Z,51.34
2022-10-17T10:37:39.994Z,51.82
2022-10-17T10:38:40.781Z,50.46
2022-10-17T10:39:41.168Z,51.04
2022-10-17T10:40:41.632Z,51.53
2022-10-17T10:41:42.148Z,51.53
2022-10-17T10:42:42.358Z,50.65
2022-10-17T10:43:42.935Z,50.26
2022-10-17T10:44:43.498Z,51.73
2022-10-17T10:45:58.816Z,49.88
2022-10-17T10:46:44.295Z,50.36
2022-10-17T10:47:43.964Z,50.73
2022-10-17T10:48:44.689Z,51.21
2022-10-17T10:49:45.356Z,50.26
2022-10-17T10:50:50.729Z,51.41
2022-10-17T10:51:46.967Z,51.02
2022-10-17T10:52:47.550Z,52.28
2022-10-17T10:53:47.457Z,51.7
2022-10-17T10:54:48.419Z,51.7
2022-10-17T10:55:48.626Z,50.73
2022-10-17T10:56:49.993Z,51.02
2022-10-17T10:57:50.439Z,50.31
2022-10-17T10:58:50.481Z,51.87
2022-10-17T10:59:50.884Z,51.58
2022-10-17T11:00:51.305Z,51.39
2022-10-17T11:01:51.782Z,51.87
2022-10-17T11:02:52.760Z,50.7
2022-10-17T11:03:52.756Z,51.09
2022-10-17T11:04:52.969Z,53.4
2022-10-17T11:05:53.486Z,53.4
2022-10-17T11:06:53.744Z,53.11
2022-10-17T11:07:53.961Z,51.65
2022-10-17T11:08:54.975Z,49.99
2022-10-17T11:09:55.272Z,49.99
2022-10-17T11:10:55.441Z,49.32
2022-10-17T11:11:56.107Z,50.29
2022-10-17T11:12:56.079Z,50.48
2022-10-17T11:13:59.298Z,50.29
2022-10-17T11:14:56.497Z,53.11
2022-10-17T11:15:57.544Z,52.62
2022-10-17T11:16:57.460Z,51.94
2022-10-17T11:17:58.398Z,51.84
2022-10-17T11:18:58.699Z,52.59
2022-10-17T11:19:59.633Z,51.43
2022-10-17T11:21:00.245Z,50.07
2022-10-17T11:22:00.452Z,49.97
2022-10-17T11:23:01.460Z,50.85
2022-10-17T11:24:04.501Z,50.65
2022-10-17T11:25:02.859Z,51.82
2022-10-17T11:26:04.063Z,52.79
2022-10-17T11:27:04.278Z,52.19
2022-10-17T11:28:10.177Z,52.21
2022-10-17T11:29:04.954Z,53.28
2022-10-17T11:30:06.192Z,52.01
2022-10-17T11:31:09.752Z,52.19
2022-10-17T11:32:06.439Z,52.96
2022-10-17T11:33:07.071Z,52.57
2022-10-17T11:34:07.710Z,53.16
2022-10-17T11:35:08.060Z,53.71
2022-10-17T11:36:08.288Z,54.56
2022-10-17T11:37:08.714Z,55.33
2022-10-17T11:38:10.068Z,56.79
2022-10-17T11:39:10.803Z,56.01
2022-10-17T11:40:10.754Z,55.75
2022-10-17T11:41:11.783Z,54.68
2022-10-17T11:42:11.991Z,56.04
2022-10-17T11:43:12.924Z,56.82
2022-10-17T11:44:13.197Z,56.04
2022-10-17T11:45:13.713Z,55.65
2022-10-17T11:46:13.640Z,56.65
2022-10-17T11:47:14.879Z,56.95
2022-10-17T11:48:15.093Z,55.68
2022-10-17T11:49:20.011Z,56.04
2022-10-17T11:52:12.093Z,54.61
2022-10-17T11:53:13.226Z,54.9
2022-10-17T11:54:13.556Z,51.79
2022-10-17T11:55:13.901Z,53.25
2022-10-17T11:56:14.402Z,54.35
2022-10-17T11:57:19.417Z,52.5
2022-10-17T11:58:14.959Z,52.21
2022-10-17T11:59:15.624Z,53.77
2022-10-17T12:00:16.352Z,54.25
2022-10-17T12:01:17.584Z,53.69
2022-10-17T12:02:18.094Z,52.79
2022-10-17T12:03:18.963Z,54.44
2022-10-17T12:04:20.049Z,52.98
2022-10-17T12:05:20.217Z,52.11
2022-10-17T12:06:20.154Z,51.82
2022-10-17T12:07:20.886Z,51.72
2022-10-17T12:08:21.232Z,51.89
2022-10-17T12:09:21.765Z,51.7
2022-10-17T12:10:22.504Z,51.6
2022-10-17T12:11:22.714Z,51.89
2022-10-17T12:12:23.254Z,51.38
2022-10-17T12:13:24.011Z,52.45
2022-10-17T12:14:24.972Z,52.06
2022-10-17T12:15:25.715Z,52.35
2022-10-17T12:16:25.963Z,53.1
2022-10-17T12:17:26.264Z,53.13
2022-10-17T12:18:26.936Z,51.35
2022-10-17T12:19:27.573Z,52.13
2022-10-17T12:20:28.879Z,52.72
2022-10-17T12:21:35.138Z,54.49
2022-10-17T12:22:31.414Z,54.58
2022-10-17T12:23:31.600Z,54.39
2022-10-17T12:24:30.802Z,54.49
2022-10-17T12:25:31.964Z,51.4
2022-10-17T12:26:32.367Z,51.31
2022-10-17T12:27:33.413Z,50.53
2022-10-17T12:28:34.238Z,50.24
2022-10-17T12:29:34.424Z,50.43
2022-10-17T12:30:35.456Z,50.14
2022-10-17T12:31:39.777Z,51.6
2022-10-17T12:33:06.944Z,52.47
2022-10-17T12:33:37.878Z,51.7
2022-10-17T12:34:39.021Z,50.14
2022-10-17T12:35:40.315Z,50.14
2022-10-17T12:36:41.642Z,49.82
2022-10-17T12:37:41.846Z,50.8
2022-10-17T12:38:44.892Z,50.99
2022-10-17T12:39:42.897Z,52.45
2022-10-17T12:40:47.832Z,53.81
2022-10-17T12:41:44.034Z,53.61
2022-10-17T12:42:44.699Z,50.34
2022-10-17T12:44:46.764Z,50.34
2022-10-17T12:45:46.017Z,50.8
2022-10-17T12:46:47.230Z,51.31
2022-10-17T12:47:48.224Z,51.5
2022-10-17T12:48:49.247Z,49.76
2022-10-17T12:49:51.182Z,49.27
2022-10-17T12:50:49.823Z,50.14
2022-10-17T12:51:49.657Z,50.24
2022-10-17T12:53:51.383Z,48.97
2022-10-17T12:55:13.369Z,48.97
2022-10-17T12:55:53.294Z,48.97
2022-10-17T12:56:54.223Z,50.24
2022-10-17T12:57:54.854Z,49.44
2022-10-17T12:58:55.362Z,49.54
2022-10-17T12:59:57.948Z,49.82
2022-10-17T13:01:28.089Z,48.85
2022-10-17T13:02:01.234Z,48.75
2022-10-17T13:03:01.662Z,49.82
2022-10-17T13:04:02.748Z,50.12
2022-10-17T13:05:03.006Z,50.6
2022-10-17T13:06:02.943Z,50.31
2022-10-17T13:07:04.242Z,50.12
2022-10-17T13:08:05.507Z,50.7
2022-10-17T13:09:08.986Z,50.63